createdAt,value
2022-10-15T00:03:46.056Z,99516.19
2022-10-15T00:08:48.804Z,99506.22
2022-10-15T00:13:53.700Z,99497.47
2022-10-15T00:18:57.825Z,99488.72
2022-10-15T00:24:00.465Z,99489.72
2022-10-15T00:29:05.242Z,99486.66
2022-10-15T00:34:08.181Z,99491.38
2022-10-15T00:39:11.723Z,99495.03
2022-10-15T00:44:49.763Z,99499.88
2022-10-15T00:49:57.017Z,99491.53
2022-10-15T00:55:04.580Z,99495.41
2022-10-15T01:00:11.645Z,99509.00
2022-10-15T01:05:17.694Z,99489.88
2022-10-15T01:10:21.470Z,99481.72
2022-10-15T01:15:28.316Z,99479.72
2022-10-15T01:21:00.353Z,99469.75
2022-10-15T01:26:12.597Z,99470.19
2022-10-15T01:31:22.939Z,99469.16
2022-10-15T01:36:33.192Z,99453.09
2022-10-15T01:41:41.036Z,99447.97
2022-10-15T01:46:48.205Z,99440.25
2022-10-15T01:51:58.590Z,99445.94
2022-10-15T01:57:01.839Z,99441.88
2022-10-15T02:02:05.870Z,99427.03
2022-10-15T02:07:10.424Z,99434.34
2022-10-15T02:12:23.537Z,99431.28
2022-10-15T02:17:32.962Z,99428.63
2022-10-15T02:22:39.924Z,99408.28
2022-10-15T02:27:43.544Z,99408.91
2022-10-15T02:32:52.256Z,99408.28
2022-10-15T02:37:59.444Z,99405.63
2022-10-15T02:43:05.463Z,99405.03
2022-10-15T02:48:09.614Z,99395.50
2022-10-15T02:53:12.376Z,99397.72
2022-10-15T02:58:17.206Z,99402.81
2022-10-15T03:03:21.761Z,99403.63
2022-10-15T03:08:24.695Z,99405.25
2022-10-15T03:13:27.501Z,99394.88
2022-10-15T03:18:31.654Z,99407.09
2022-10-15T03:23:34.592Z,99398.16
2022-10-15T03:28:45.759Z,99387.38
2022-10-15T03:33:56.796Z,99383.09
2022-10-15T03:39:01.613Z,99394.50
2022-10-15T03:44:05.597Z,99390.22
2022-10-15T03:49:09.698Z,99388.59
2022-10-15T03:54:12.422Z,99384.31
2022-10-15T03:59:22.861Z,99380.03
2022-10-15T04:04:34.057Z,99386.34
2022-10-15T04:09:36.870Z,99377.56
2022-10-15T04:15:01.916Z,99373.91
2022-10-15T04:20:06.710Z,99372.28
2022-10-15T04:25:10.223Z,99363.16
2022-10-15T04:30:14.199Z,99370.88
2022-10-15T04:35:27.701Z,99368.00
2022-10-15T04:41:01.610Z,99371.69
2022-10-15T04:46:11.767Z,99375.16
2022-10-15T04:51:18.001Z,99377.41
2022-10-15T04:56:40.891Z,99378.00
2022-10-15T05:01:44.135Z,99375.38
2022-10-15T05:06:48.451Z,99377.00
2022-10-15T05:11:55.841Z,99366.59
2022-10-15T05:16:58.577Z,99368.44
2022-10-15T05:22:03.831Z,99371.28
2022-10-15T05:27:08.012Z,99378.19
2022-10-15T05:32:11.967Z,99382.28
2022-10-15T05:37:17.129Z,99383.09
2022-10-15T05:42:19.887Z,99381.44
2022-10-15T05:47:29.074Z,99386.97
2022-10-15T05:52:49.821Z,99394.69
2022-10-15T05:58:03.523Z,99388.19
2022-10-15T06:03:06.264Z,99392.25
2022-10-15T06:08:10.242Z,99399.56
2022-10-15T06:13:13.679Z,99403.63
2022-10-15T06:18:16.392Z,99400.81
2022-10-15T06:23:21.465Z,99396.31
2022-10-15T06:28:24.196Z,99400.41
2022-10-15T06:33:27.118Z,99416.47
2022-10-15T06:38:31.136Z,99415.47
2022-10-15T06:43:35.214Z,99423.19
2022-10-15T06:48:38.428Z,99415.84
2022-10-15T06:53:43.787Z,99420.97
2022-10-15T06:58:46.432Z,99426.28
2022-10-15T07:03:50.634Z,99409.59
2022-10-15T07:08:54.585Z,99426.06
2022-10-15T07:13:58.145Z,99441.16
2022-10-15T07:19:00.731Z,99444.00
2022-10-15T07:24:05.182Z,99448.28
2022-10-15T07:29:09.518Z,99463.13
2022-10-15T07:34:12.084Z,99461.91
2022-10-15T07:39:17.902Z,99456.22
2022-10-15T07:44:20.647Z,99465.19
2022-10-15T07:49:23.273Z,99469.09
2022-10-15T07:54:27.267Z,99451.16
2022-10-15T07:59:30.030Z,99451.38
2022-10-15T08:04:34.907Z,99467.06
2022-10-15T08:09:38.996Z,99471.13
2022-10-15T08:14:41.726Z,99466.84
2022-10-15T08:19:44.524Z,99459.31
2022-10-15T08:24:48.505Z,99464.38
2022-10-15T08:29:51.107Z,99471.13
2022-10-15T08:34:53.790Z,99466.63
2022-10-15T08:39:57.718Z,99476.44
2022-10-15T08:45:02.934Z,99482.13
2022-10-15T08:50:17.726Z,99487.44
2022-10-15T09:00:31.803Z,99503.31
2022-10-15T09:05:39.883Z,99511.47
2022-10-15T09:10:46.487Z,99519.59
2022-10-15T09:15:53.362Z,99513.69
2022-10-15T09:20:56.377Z,99519.78
2022-10-15T09:26:04.550Z,99537.97
2022-10-15T09:31:08.915Z,99542.25
2022-10-15T09:36:20.973Z,99534.69
2022-10-15T09:41:33.294Z,99534.66
2022-10-15T09:46:35.906Z,99553.22
2022-10-15T09:51:41.953Z,99548.31
2022-10-15T09:56:48.242Z,99540.94
2022-10-15T10:01:59.213Z,99539.69
2022-10-15T10:07:04.916Z,99545.00
2022-10-15T10:12:18.329Z,99552.50
2022-10-15T10:17:22.736Z,99545.97
2022-10-15T10:22:25.719Z,99556.81
2022-10-15T10:27:31.428Z,99557.00
2022-10-15T10:32:35.979Z,99549.00
2022-10-15T10:37:42.775Z,99543.53
2022-10-15T10:42:48.042Z,99553.03
2022-10-15T10:47:53.890Z,99549.31
2022-10-15T10:52:57.274Z,99552.38
2022-10-15T10:58:05.382Z,99550.44
2022-10-15T11:03:19.364Z,99540.97
2022-10-15T11:08:28.016Z,99549.78
2022-10-15T11:13:49.691Z,99555.13
2022-10-15T11:19:18.894Z,99560.94
2022-10-15T11:24:48.388Z,99569.84
2022-10-15T11:29:57.551Z,99550.22
2022-10-15T11:35:20.169Z,99563.69
2022-10-15T11:40:36.358Z,99565.19
2022-10-15T11:45:55.148Z,99562.41
2022-10-15T11:51:01.338Z,99577.94
2022-10-15T11:56:07.074Z,99563.50
2022-10-15T12:01:13.867Z,99571.47
2022-10-15T12:06:18.424Z,99561.38
2022-10-15T12:11:28.307Z,99567.88
2022-10-15T12:16:37.751Z,99567.97
2022-10-15T12:21:41.956Z,99564.72
2022-10-15T12:26:44.578Z,99552.19
2022-10-15T12:31:50.630Z,99547.06
2022-10-15T12:37:01.308Z,99529.53
2022-10-15T12:42:04.090Z,99525.91
2022-10-15T12:47:11.392Z,99517.09
2022-10-15T12:52:51.578Z,99515.13
2022-10-15T12:57:56.882Z,99516.75
2022-10-15T13:03:10.926Z,99518.22
2022-10-15T13:08:16.130Z,99524.63
2022-10-15T13:13:21.440Z,99522.88
2022-10-15T13:18:26.036Z,99526.03
2022-10-15T13:23:30.934Z,99538.72
2022-10-15T13:28:38.021Z,99532.16
2022-10-15T13:33:42.743Z,99539.84
2022-10-15T13:38:47.379Z,99537.13
2022-10-15T13:43:53.777Z,99544.47
2022-10-15T13:49:02.735Z,99532.63
2022-10-15T13:54:10.049Z,99532.59
2022-10-15T13:59:17.734Z,99550.63
2022-10-15T14:04:23.371Z,99539.16
2022-10-15T14:09:30.512Z,99535.88
2022-10-15T14:14:35.100Z,99533.19
2022-10-15T14:19:40.139Z,99551.28
2022-10-15T14:24:42.835Z,99543.59
2022-10-15T14:29:47.587Z,99549.94
2022-10-15T14:34:52.694Z,99548.97
2022-10-15T14:40:05.235Z,99534.72
2022-10-15T14:45:19.585Z,99533.75
2022-10-15T14:50:33.150Z,99537.06
2022-10-15T14:55:38.783Z,99537.72
2022-10-15T15:00:43.488Z,99536.72
2022-10-15T15:05:49.385Z,99539.66
2022-10-15T15:10:53.449Z,99540.75
2022-10-15T15:15:56.954Z,99548.75
2022-10-15T15:21:03.828Z,99553.47
2022-10-15T15:26:06.719Z,99561.19
2022-10-15T15:31:15.943Z,99556.25
2022-10-15T15:36:22.602Z,99555.47
2022-10-15T15:41:26.652Z,99558.91
2022-10-15T15:46:29.295Z,99564.22
2022-10-15T15:51:33.341Z,99564.69
2022-10-15T15:56:36.058Z,99553.66
2022-10-15T16:01:38.810Z,99561.03
2022-10-15T16:06:43.339Z,99572.13
2022-10-15T16:11:46.181Z,99577.88
2022-10-15T16:16:48.839Z,99587.28
2022-10-15T16:21:52.882Z,99586.28
2022-10-15T16:26:55.511Z,99585.06
2022-10-15T16:31:58.214Z,99581.22
2022-10-15T16:37:02.492Z,99586.38
2022-10-15T16:42:05.642Z,99595.00
2022-10-15T16:47:08.370Z,99599.28
2022-10-15T16:52:12.518Z,99600.78
2022-10-15T16:57:15.228Z,99618.38
2022-10-15T17:02:17.839Z,99628.59
2022-10-15T17:07:22.137Z,99623.13
2022-10-15T17:12:25.246Z,99630.69
2022-10-15T17:17:28.087Z,99642.78
2022-10-15T17:22:32.149Z,99648.53
2022-10-15T17:27:35.684Z,99639.72
2022-10-15T17:32:38.323Z,99637.28
2022-10-15T17:37:42.290Z,99644.25
2022-10-15T17:42:44.963Z,99650.16
2022-10-15T17:47:47.658Z,99648.75
2022-10-15T17:52:52.268Z,99644.88
2022-10-15T17:57:54.924Z,99656.97
2022-10-15T18:02:58.772Z,99672.47
2022-10-15T18:08:03.902Z,99679.03
2022-10-15T18:13:06.966Z,99675.38
2022-10-15T18:18:09.562Z,99670.06
2022-10-15T18:23:13.741Z,99681.31
2022-10-15T18:28:16.687Z,99681.91
2022-10-15T18:33:19.348Z,99696.44
2022-10-15T18:38:23.391Z,99690.31
2022-10-15T18:43:26.034Z,99692.16
2022-10-15T18:48:32.768Z,99695.03
2022-10-15T18:53:37.657Z,99689.91
2022-10-15T18:58:42.854Z,99689.09
2022-10-15T19:03:45.467Z,99695.22
2022-10-15T19:08:50.021Z,99697.47
2022-10-15T19:13:52.633Z,99688.66
2022-10-15T19:18:55.382Z,99692.38
2022-10-15T19:23:59.830Z,99698.88
2022-10-15T19:29:03.260Z,99697.25
2022-10-15T19:34:06.590Z,99704.59
2022-10-15T19:39:13.167Z,99704.59
2022-10-15T19:44:17.266Z,99708.09
2022-10-15T19:49:20.502Z,99713.00
2022-10-15T19:59:28.180Z,99720.94
2022-10-15T20:04:30.905Z,99734.41
2022-10-15T20:09:34.906Z,99736.03
2022-10-15T20:14:37.653Z,99729.94
2022-10-15T20:19:40.297Z,99731.97
2022-10-15T20:24:44.299Z,99748.06
2022-10-15T20:29:47.000Z,99754.00
2022-10-15T20:34:49.925Z,99759.53
2022-10-15T20:39:54.103Z,99779.31
2022-10-15T20:44:56.845Z,99783.19
2022-10-15T20:49:59.496Z,99791.97
2022-10-15T20:55:04.127Z,99799.09
2022-10-15T21:00:08.990Z,99791.53
2022-10-15T21:05:11.619Z,99792.56
2022-10-15T21:10:15.692Z,99794.81
2022-10-15T21:15:18.560Z,99804.19
2022-10-15T21:20:21.313Z,99817.66
2022-10-15T21:25:25.333Z,99801.53
2022-10-15T21:30:28.351Z,99803.16
2022-10-15T21:35:31.020Z,99810.28
2022-10-15T21:40:34.992Z,99811.44
2022-10-15T21:45:37.762Z,99828.00
2022-10-15T21:50:40.423Z,99838.81
2022-10-15T21:55:53.303Z,99843.28
2022-10-15T22:00:55.906Z,99856.13
2022-10-15T22:05:59.588Z,99860.00
2022-10-15T22:11:11.259Z,99853.25
2022-10-15T22:16:14.970Z,99857.91
2022-10-15T22:21:19.987Z,99852.81
2022-10-15T22:26:25.413Z,99861.16
2022-10-15T22:31:28.438Z,99853.44
2022-10-15T22:36:31.909Z,99849.94
2022-10-15T22:41:39.599Z,99843.00
2022-10-15T22:46:45.993Z,99846.88
2022-10-15T22:51:48.938Z,99842.56
2022-10-15T22:56:53.105Z,99848.88
2022-10-15T23:01:55.683Z,99857.84
2022-10-15T23:06:58.283Z,99866.41
2022-10-15T23:12:02.262Z,99866.03
2022-10-15T23:17:04.875Z,99866.22
2022-10-15T23:22:09.811Z,99870.53
2022-10-15T23:27:13.950Z,99867.31
2022-10-15T23:32:16.547Z,99881.59
2022-10-15T23:37:19.512Z,99872.25
2022-10-15T23:42:23.893Z,99882.03
2022-10-15T23:47:26.898Z,99875.53
2022-10-15T23:52:29.819Z,99872.25
2022-10-15T23:57:33.744Z,99876.09
